sensor_id;sensor_type;location;lat;lon;timestamp;pressure;altitude;pressure_sealevel;temperature
7882;BMP180;3986;41.884;23.466;2023-12-20T00:00:43;92363.00;;;-1.30
7882;BMP180;3986;41.884;23.466;2023-12-20T00:03:09;92362.00;;;-1.10
7882;BMP180;3986;41.884;23.466;2023-12-20T00:05:36;92363.00;;;-1.30
7882;BMP180;3986;41.884;23.466;2023-12-20T00:08:06;92357.00;;;-1.10
7882;BMP180;3986;41.884;23.466;2023-12-20T00:10:34;92359.00;;;-1.20
7882;BMP180;3986;41.884;23.466;2023-12-20T00:13:01;92360.00;;;-1.40
7882;BMP180;3986;41.884;23.466;2023-12-20T00:15:28;92350.00;;;-1.40
7882;BMP180;3986;41.884;23.466;2023-12-20T00:17:55;92353.00;;;-1.30
7882;BMP180;3986;41.884;23.466;2023-12-20T00:20:21;92356.00;;;-1.60
7882;BMP180;3986;41.884;23.466;2023-12-20T00:22:48;92355.00;;;-1.70
7882;BMP180;3986;41.884;23.466;2023-12-20T00:25:15;92346.00;;;-1.50
7882;BMP180;3986;41.884;23.466;2023-12-20T00:27:43;92338.00;;;-1.90
7882;BMP180;3986;41.884;23.466;2023-12-20T00:30:10;92339.00;;;-1.80
7882;BMP180;3986;41.884;23.466;2023-12-20T00:32:37;92342.00;;;-1.60
7882;BMP180;3986;41.884;23.466;2023-12-20T00:35:05;92332.00;;;-1.50
7882;BMP180;3986;41.884;23.466;2023-12-20T00:37:31;92332.00;;;-1.50
7882;BMP180;3986;41.884;23.466;2023-12-20T00:39:58;92331.00;;;-1.50
7882;BMP180;3986;41.884;23.466;2023-12-20T00:42:25;92331.00;;;-1.40
7882;BMP180;3986;41.884;23.466;2023-12-20T00:44:53;92336.00;;;-1.40
7882;BMP180;3986;41.884;23.466;2023-12-20T00:47:20;92329.00;;;-1.30
7882;BMP180;3986;41.884;23.466;2023-12-20T00:49:47;92328.00;;;-1.50
7882;BMP180;3986;41.884;23.466;2023-12-20T00:52:14;92326.00;;;-1.30
7882;BMP180;3986;41.884;23.466;2023-12-20T00:54:42;92322.00;;;-1.40
7882;BMP180;3986;41.884;23.466;2023-12-20T00:57:09;92329.00;;;-1.70
7882;BMP180;3986;41.884;23.466;2023-12-20T00:59:36;92330.00;;;-1.60
7882;BMP180;3986;41.884;23.466;2023-12-20T01:02:04;92325.00;;;-1.50
7882;BMP180;3986;41.884;23.466;2023-12-20T01:04:31;92317.00;;;-1.50
7882;BMP180;3986;41.884;23.466;2023-12-20T01:06:58;92318.00;;;-1.50
7882;BMP180;3986;41.884;23.466;2023-12-20T01:09:24;92311.00;;;-1.60
7882;BMP180;3986;41.884;23.466;2023-12-20T01:11:52;92314.00;;;-1.40
7882;BMP180;3986;41.884;23.466;2023-12-20T01:14:18;92312.00;;;-1.40
7882;BMP180;3986;41.884;23.466;2023-12-20T01:16:45;92311.00;;;-1.50
7882;BMP180;3986;41.884;23.466;2023-12-20T01:19:13;92306.00;;;-1.70
7882;BMP180;3986;41.884;23.466;2023-12-20T01:21:40;92301.00;;;-1.60
7882;BMP180;3986;41.884;23.466;2023-12-20T01:24:07;92302.00;;;-1.50
7882;BMP180;3986;41.884;23.466;2023-12-20T01:26:34;92291.00;;;-1.90
7882;BMP180;3986;41.884;23.466;2023-12-20T01:29:01;92284.00;;;-1.70
7882;BMP180;3986;41.884;23.466;2023-12-20T01:31:28;92286.00;;;-1.70
7882;BMP180;3986;41.884;23.466;2023-12-20T01:33:55;92281.00;;;-1.70
7882;BMP180;3986;41.884;23.466;2023-12-20T01:36:23;92274.00;;;-1.60
7882;BMP180;3986;41.884;23.466;2023-12-20T01:38:49;92270.00;;;-1.50
7882;BMP180;3986;41.884;23.466;2023-12-20T01:41:16;92278.00;;;-1.80
7882;BMP180;3986;41.884;23.466;2023-12-20T01:43:43;92269.00;;;-1.90
7882;BMP180;3986;41.884;23.466;2023-12-20T01:46:10;92259.00;;;-2.10
7882;BMP180;3986;41.884;23.466;2023-12-20T01:48:37;92268.00;;;-1.90
7882;BMP180;3986;41.884;23.466;2023-12-20T01:51:04;92258.00;;;-1.80
7882;BMP180;3986;41.884;23.466;2023-12-20T01:53:32;92258.00;;;-1.80
7882;BMP180;3986;41.884;23.466;2023-12-20T01:55:59;92256.00;;;-1.80
7882;BMP180;3986;41.884;23.466;2023-12-20T01:58:27;92260.00;;;-1.70
7882;BMP180;3986;41.884;23.466;2023-12-20T02:00:54;92250.00;;;-1.70
7882;BMP180;3986;41.884;23.466;2023-12-20T02:03:21;92238.00;;;-1.60
7882;BMP180;3986;41.884;23.466;2023-12-20T02:05:48;92235.00;;;-1.70
7882;BMP180;3986;41.884;23.466;2023-12-20T02:08:15;92230.00;;;-1.60
7882;BMP180;3986;41.884;23.466;2023-12-20T02:10:42;92234.00;;;-2.00
7882;BMP180;3986;41.884;23.466;2023-12-20T02:13:09;92232.00;;;-2.50
7882;BMP180;3986;41.884;23.466;2023-12-20T02:15:35;92229.00;;;-2.60
7882;BMP180;3986;41.884;23.466;2023-12-20T02:18:03;92226.00;;;-2.00
7882;BMP180;3986;41.884;23.466;2023-12-20T02:20:30;92230.00;;;-1.80
7882;BMP180;3986;41.884;23.466;2023-12-20T02:22:58;92221.00;;;-1.60
7882;BMP180;3986;41.884;23.466;2023-12-20T02:25:24;92223.00;;;-1.60
7882;BMP180;3986;41.884;23.466;2023-12-20T02:27:52;92226.00;;;-1.60
7882;BMP180;3986;41.884;23.466;2023-12-20T02:30:18;92224.00;;;-1.80
7882;BMP180;3986;41.884;23.466;2023-12-20T02:32:45;92218.00;;;-1.80
7882;BMP180;3986;41.884;23.466;2023-12-20T02:35:12;92211.00;;;-1.70
7882;BMP180;3986;41.884;23.466;2023-12-20T02:37:39;92215.00;;;-1.70
7882;BMP180;3986;41.884;23.466;2023-12-20T02:40:08;92218.00;;;-2.20
7882;BMP180;3986;41.884;23.466;2023-12-20T02:42:34;92203.00;;;-2.20
7882;BMP180;3986;41.884;23.466;2023-12-20T02:45:01;92213.00;;;-2.00
7882;BMP180;3986;41.884;23.466;2023-12-20T02:47:28;92209.00;;;-1.90
7882;BMP180;3986;41.884;23.466;2023-12-20T02:49:55;92207.00;;;-2.10
7882;BMP180;3986;41.884;23.466;2023-12-20T02:52:22;92195.00;;;-2.00
7882;BMP180;3986;41.884;23.466;2023-12-20T02:54:49;92203.00;;;-2.10
7882;BMP180;3986;41.884;23.466;2023-12-20T02:57:17;92195.00;;;-2.30
7882;BMP180;3986;41.884;23.466;2023-12-20T02:59:44;92194.00;;;-3.10
7882;BMP180;3986;41.884;23.466;2023-12-20T03:02:11;92200.00;;;-3.20
7882;BMP180;3986;41.884;23.466;2023-12-20T03:04:38;92193.00;;;-2.70
7882;BMP180;3986;41.884;23.466;2023-12-20T03:07:04;92191.00;;;-2.60
7882;BMP180;3986;41.884;23.466;2023-12-20T03:09:31;92188.00;;;-2.40
7882;BMP180;3986;41.884;23.466;2023-12-20T03:11:58;92197.00;;;-2.20
7882;BMP180;3986;41.884;23.466;2023-12-20T03:14:26;92189.00;;;-2.70
7882;BMP180;3986;41.884;23.466;2023-12-20T03:16:53;92192.00;;;-2.70
7882;BMP180;3986;41.884;23.466;2023-12-20T03:19:19;92185.00;;;-3.00
7882;BMP180;3986;41.884;23.466;2023-12-20T03:21:46;92180.00;;;-2.90
7882;BMP180;3986;41.884;23.466;2023-12-20T03:24:13;92179.00;;;-2.60
7882;BMP180;3986;41.884;23.466;2023-12-20T03:26:40;92171.00;;;-2.40
7882;BMP180;3986;41.884;23.466;2023-12-20T03:29:06;92188.00;;;-2.30
7882;BMP180;3986;41.884;23.466;2023-12-20T03:31:34;92179.00;;;-2.40
7882;BMP180;3986;41.884;23.466;2023-12-20T03:34:01;92179.00;;;-2.40
7882;BMP180;3986;41.884;23.466;2023-12-20T03:36:28;92182.00;;;-2.30
7882;BMP180;3986;41.884;23.466;2023-12-20T03:38:55;92176.00;;;-2.20
7882;BMP180;3986;41.884;23.466;2023-12-20T03:41:21;92179.00;;;-2.20
7882;BMP180;3986;41.884;23.466;2023-12-20T03:43:48;92173.00;;;-2.20
7882;BMP180;3986;41.884;23.466;2023-12-20T03:46:15;92166.00;;;-2.60
7882;BMP180;3986;41.884;23.466;2023-12-20T03:48:43;92176.00;;;-2.30
7882;BMP180;3986;41.884;23.466;2023-12-20T03:51:09;92179.00;;;-2.20
7882;BMP180;3986;41.884;23.466;2023-12-20T03:53:35;92175.00;;;-2.40
7882;BMP180;3986;41.884;23.466;2023-12-20T03:56:03;92172.00;;;-2.50
7882;BMP180;3986;41.884;23.466;2023-12-20T03:58:29;92175.00;;;-2.50
7882;BMP180;3986;41.884;23.466;2023-12-20T04:00:56;92169.00;;;-2.50
7882;BMP180;3986;41.884;23.466;2023-12-20T04:03:23;92171.00;;;-2.50
7882;BMP180;3986;41.884;23.466;2023-12-20T04:05:51;92173.00;;;-2.40
7882;BMP180;3986;41.884;23.466;2023-12-20T04:08:18;92173.00;;;-2.30
7882;BMP180;3986;41.884;23.466;2023-12-20T04:10:44;92180.00;;;-2.20
7882;BMP180;3986;41.884;23.466;2023-12-20T04:13:11;92170.00;;;-2.10
7882;BMP180;3986;41.884;23.466;2023-12-20T04:15:38;92162.00;;;-2.20
7882;BMP180;3986;41.884;23.466;2023-12-20T04:18:05;92155.00;;;-2.30
7882;BMP180;3986;41.884;23.466;2023-12-20T04:20:31;92150.00;;;-2.20
7882;BMP180;3986;41.884;23.466;2023-12-20T04:23:00;92149.00;;;-2.80
7882;BMP180;3986;41.884;23.466;2023-12-20T04:25:26;92151.00;;;-2.70
7882;BMP180;3986;41.884;23.466;2023-12-20T04:27:53;92151.00;;;-2.70
7882;BMP180;3986;41.884;23.466;2023-12-20T04:30:20;92145.00;;;-2.50
7882;BMP180;3986;41.884;23.466;2023-12-20T04:32:47;92145.00;;;-3.00
7882;BMP180;3986;41.884;23.466;2023-12-20T04:35:13;92144.00;;;-2.70
7882;BMP180;3986;41.884;23.466;2023-12-20T04:37:40;92152.00;;;-2.60
7882;BMP180;3986;41.884;23.466;2023-12-20T04:40:09;92144.00;;;-2.60
7882;BMP180;3986;41.884;23.466;2023-12-20T04:42:36;92145.00;;;-3.10
7882;BMP180;3986;41.884;23.466;2023-12-20T04:45:04;92134.00;;;-2.70
7882;BMP180;3986;41.884;23.466;2023-12-20T04:47:31;92138.00;;;-3.00
7882;BMP180;3986;41.884;23.466;2023-12-20T04:49:58;92129.00;;;-3.00
7882;BMP180;3986;41.884;23.466;2023-12-20T04:52:25;92130.00;;;-3.50
7882;BMP180;3986;41.884;23.466;2023-12-20T04:54:52;92120.00;;;-3.30
7882;BMP180;3986;41.884;23.466;2023-12-20T04:57:20;92116.00;;;-3.10
7882;BMP180;3986;41.884;23.466;2023-12-20T04:59:47;92117.00;;;-3.00
7882;BMP180;3986;41.884;23.466;2023-12-20T05:02:14;92106.00;;;-2.70
7882;BMP180;3986;41.884;23.466;2023-12-20T05:04:40;92115.00;;;-2.70
7882;BMP180;3986;41.884;23.466;2023-12-20T05:07:08;92116.00;;;-3.00
7882;BMP180;3986;41.884;23.466;2023-12-20T05:09:34;92117.00;;;-2.90
7882;BMP180;3986;41.884;23.466;2023-12-20T05:12:01;92119.00;;;-2.90
7882;BMP180;3986;41.884;23.466;2023-12-20T05:14:29;92113.00;;;-3.00
7882;BMP180;3986;41.884;23.466;2023-12-20T05:16:56;92111.00;;;-2.70
7882;BMP180;3986;41.884;23.466;2023-12-20T05:19:23;92113.00;;;-2.80
7882;BMP180;3986;41.884;23.466;2023-12-20T05:21:49;92101.00;;;-2.80
7882;BMP180;3986;41.884;23.466;2023-12-20T05:24:16;92100.00;;;-2.80
7882;BMP180;3986;41.884;23.466;2023-12-20T05:26:43;92100.00;;;-2.40
7882;BMP180;3986;41.884;23.466;2023-12-20T05:29:10;92087.00;;;-2.50
7882;BMP180;3986;41.884;23.466;2023-12-20T05:31:38;92089.00;;;-2.90
7882;BMP180;3986;41.884;23.466;2023-12-20T05:34:05;92094.00;;;-3.80
7882;BMP180;3986;41.884;23.466;2023-12-20T05:36:31;92097.00;;;-3.70
7882;BMP180;3986;41.884;23.466;2023-12-20T05:38:58;92108.00;;;-3.60
7882;BMP180;3986;41.884;23.466;2023-12-20T05:41:25;92095.00;;;-3.10
7882;BMP180;3986;41.884;23.466;2023-12-20T05:43:52;92069.00;;;-2.90
7882;BMP180;3986;41.884;23.466;2023-12-20T05:46:18;92086.00;;;-2.70
7882;BMP180;3986;41.884;23.466;2023-12-20T05:48:48;92086.00;;;-2.60
7882;BMP180;3986;41.884;23.466;2023-12-20T05:51:14;92085.00;;;-2.80
7882;BMP180;3986;41.884;23.466;2023-12-20T05:53:41;92082.00;;;-3.00
7882;BMP180;3986;41.884;23.466;2023-12-20T05:56:08;92092.00;;;-2.60
7882;BMP180;3986;41.884;23.466;2023-12-20T05:58:35;92083.00;;;-2.40
7882;BMP180;3986;41.884;23.466;2023-12-20T06:01:03;92077.00;;;-2.60
7882;BMP180;3986;41.884;23.466;2023-12-20T06:03:30;92082.00;;;-2.50
7882;BMP180;3986;41.884;23.466;2023-12-20T06:05:59;92083.00;;;-2.40
7882;BMP180;3986;41.884;23.466;2023-12-20T06:08:26;92088.00;;;-2.50
7882;BMP180;3986;41.884;23.466;2023-12-20T06:10:53;92081.00;;;-2.40
7882;BMP180;3986;41.884;23.466;2023-12-20T06:13:20;92084.00;;;-2.40
7882;BMP180;3986;41.884;23.466;2023-12-20T06:15:46;92081.00;;;-2.20
7882;BMP180;3986;41.884;23.466;2023-12-20T06:18:13;92077.00;;;-2.40
7882;BMP180;3986;41.884;23.466;2023-12-20T06:20:40;92085.00;;;-2.50
7882;BMP180;3986;41.884;23.466;2023-12-20T06:23:08;92081.00;;;-2.50
7882;BMP180;3986;41.884;23.466;2023-12-20T06:25:35;92092.00;;;-2.90
7882;BMP180;3986;41.884;23.466;2023-12-20T06:28:01;92093.00;;;-2.60
7882;BMP180;3986;41.884;23.466;2023-12-20T06:30:28;92087.00;;;-2.50
7882;BMP180;3986;41.884;23.466;2023-12-20T06:32:55;92080.00;;;-2.50
7882;BMP180;3986;41.884;23.466;2023-12-20T06:35:23;92084.00;;;-2.40
7882;BMP180;3986;41.884;23.466;2023-12-20T06:37:50;92087.00;;;-2.40
7882;BMP180;3986;41.884;23.466;2023-12-20T06:40:19;92086.00;;;-2.10
7882;BMP180;3986;41.884;23.466;2023-12-20T06:42:46;92078.00;;;-2.40
7882;BMP180;3986;41.884;23.466;2023-12-20T06:45:12;92081.00;;;-2.50
7882;BMP180;3986;41.884;23.466;2023-12-20T06:47:39;92081.00;;;-2.90
7882;BMP180;3986;41.884;23.466;2023-12-20T06:50:06;92071.00;;;-2.90
7882;BMP180;3986;41.884;23.466;2023-12-20T06:52:34;92071.00;;;-2.90
7882;BMP180;3986;41.884;23.466;2023-12-20T06:55:01;92072.00;;;-2.20
7882;BMP180;3986;41.884;23.466;2023-12-20T06:57:29;92078.00;;;-2.20
7882;BMP180;3986;41.884;23.466;2023-12-20T06:59:56;92076.00;;;-2.00
7882;BMP180;3986;41.884;23.466;2023-12-20T07:02:23;92080.00;;;-1.90
7882;BMP180;3986;41.884;23.466;2023-12-20T07:04:50;92059.00;;;-2.10
7882;BMP180;3986;41.884;23.466;2023-12-20T07:07:16;92069.00;;;-2.00
7882;BMP180;3986;41.884;23.466;2023-12-20T07:09:43;92056.00;;;-2.20
7882;BMP180;3986;41.884;23.466;2023-12-20T07:12:10;92053.00;;;-2.10
7882;BMP180;3986;41.884;23.466;2023-12-20T07:14:38;92050.00;;;-1.60
7882;BMP180;3986;41.884;23.466;2023-12-20T07:17:05;92053.00;;;-1.30
7882;BMP180;3986;41.884;23.466;2023-12-20T07:19:36;92049.00;;;-1.40
7882;BMP180;3986;41.884;23.466;2023-12-20T07:22:03;92044.00;;;-1.20
7882;BMP180;3986;41.884;23.466;2023-12-20T07:24:30;92052.00;;;-1.00
7882;BMP180;3986;41.884;23.466;2023-12-20T07:26:57;92038.00;;;-1.00
7882;BMP180;3986;41.884;23.466;2023-12-20T07:29:24;92035.00;;;-1.40
7882;BMP180;3986;41.884;23.466;2023-12-20T07:31:52;92023.00;;;-0.70
7882;BMP180;3986;41.884;23.466;2023-12-20T07:34:19;92044.00;;;-0.60
7882;BMP180;3986;41.884;23.466;2023-12-20T07:36:46;92027.00;;;-0.70
7882;BMP180;3986;41.884;23.466;2023-12-20T07:39:14;92039.00;;;-0.30
7882;BMP180;3986;41.884;23.466;2023-12-20T07:41:41;92028.00;;;-0.20
7882;BMP180;3986;41.884;23.466;2023-12-20T07:44:08;92028.00;;;0.40
7882;BMP180;3986;41.884;23.466;2023-12-20T07:46:34;92025.00;;;1.00
7882;BMP180;3986;41.884;23.466;2023-12-20T07:49:04;92032.00;;;1.50
7882;BMP180;3986;41.884;23.466;2023-12-20T07:51:31;92028.00;;;2.20
7882;BMP180;3986;41.884;23.466;2023-12-20T07:53:58;92017.00;;;2.30
7882;BMP180;3986;41.884;23.466;2023-12-20T07:56:25;92018.00;;;2.40
7882;BMP180;3986;41.884;23.466;2023-12-20T07:58:51;92012.00;;;3.00
7882;BMP180;3986;41.884;23.466;2023-12-20T08:01:18;92014.00;;;3.10
7882;BMP180;3986;41.884;23.466;2023-12-20T08:03:45;92007.00;;;3.50
7882;BMP180;3986;41.884;23.466;2023-12-20T08:06:13;92005.00;;;3.80
7882;BMP180;3986;41.884;23.466;2023-12-20T08:08:40;92014.00;;;3.90
7882;BMP180;3986;41.884;23.466;2023-12-20T08:11:07;92003.00;;;4.30
7882;BMP180;3986;41.884;23.466;2023-12-20T08:13:33;91996.00;;;4.40
7882;BMP180;3986;41.884;23.466;2023-12-20T08:16:00;92002.00;;;4.90
7882;BMP180;3986;41.884;23.466;2023-12-20T08:18:28;91995.00;;;5.10
7882;BMP180;3986;41.884;23.466;2023-12-20T08:20:55;91990.00;;;5.10
7882;BMP180;3986;41.884;23.466;2023-12-20T08:23:23;91991.00;;;5.40
7882;BMP180;3986;41.884;23.466;2023-12-20T08:25:50;91995.00;;;5.80
7882;BMP180;3986;41.884;23.466;2023-12-20T08:28:16;91997.00;;;6.20
7882;BMP180;3986;41.884;23.466;2023-12-20T08:30:43;91988.00;;;6.00
7882;BMP180;3986;41.884;23.466;2023-12-20T08:33:10;91988.00;;;6.70
7882;BMP180;3986;41.884;23.466;2023-12-20T08:35:38;91984.00;;;7.20
7882;BMP180;3986;41.884;23.466;2023-12-20T08:38:05;91978.00;;;7.60
7882;BMP180;3986;41.884;23.466;2023-12-20T08:40:33;91976.00;;;8.30
7882;BMP180;3986;41.884;23.466;2023-12-20T08:43:01;91977.00;;;9.00
7882;BMP180;3986;41.884;23.466;2023-12-20T08:45:27;91964.00;;;10.40
7882;BMP180;3986;41.884;23.466;2023-12-20T08:47:54;91960.00;;;11.20
7882;BMP180;3986;41.884;23.466;2023-12-20T08:50:21;91954.00;;;10.90
7882;BMP180;3986;41.884;23.466;2023-12-20T08:52:48;91951.00;;;11.40
7882;BMP180;3986;41.884;23.466;2023-12-20T08:55:15;91953.00;;;13.10
7882;BMP180;3986;41.884;23.466;2023-12-20T08:57:44;91943.00;;;12.40
7882;BMP180;3986;41.884;23.466;2023-12-20T09:00:12;91947.00;;;13.40
7882;BMP180;3986;41.884;23.466;2023-12-20T09:02:40;91938.00;;;13.80
7882;BMP180;3986;41.884;23.466;2023-12-20T09:05:08;91936.00;;;14.80
7882;BMP180;3986;41.884;23.466;2023-12-20T09:07:34;91933.00;;;16.00
7882;BMP180;3986;41.884;23.466;2023-12-20T09:10:01;91921.00;;;16.20
7882;BMP180;3986;41.884;23.466;2023-12-20T09:12:29;91929.00;;;16.60
7882;BMP180;3986;41.884;23.466;2023-12-20T09:14:57;91916.00;;;17.00
7882;BMP180;3986;41.884;23.466;2023-12-20T09:17:24;91916.00;;;17.70
7882;BMP180;3986;41.884;23.466;2023-12-20T09:19:50;91916.00;;;17.90
7882;BMP180;3986;41.884;23.466;2023-12-20T09:22:19;91913.00;;;16.50
7882;BMP180;3986;41.884;23.466;2023-12-20T09:24:46;91910.00;;;18.00
7882;BMP180;3986;41.884;23.466;2023-12-20T09:27:13;91893.00;;;20.00
7882;BMP180;3986;41.884;23.466;2023-12-20T09:29:40;91895.00;;;20.40
7882;BMP180;3986;41.884;23.466;2023-12-20T09:32:08;91895.00;;;21.10
7882;BMP180;3986;41.884;23.466;2023-12-20T09:34:34;91898.00;;;20.90
7882;BMP180;3986;41.884;23.466;2023-12-20T09:37:03;91893.00;;;21.20
7882;BMP180;3986;41.884;23.466;2023-12-20T09:39:31;91882.00;;;20.80
7882;BMP180;3986;41.884;23.466;2023-12-20T09:42:01;91881.00;;;21.50
7882;BMP180;3986;41.884;23.466;2023-12-20T09:44:28;91884.00;;;21.30
7882;BMP180;3986;41.884;23.466;2023-12-20T09:46:56;91887.00;;;22.30
7882;BMP180;3986;41.884;23.466;2023-12-20T09:49:29;91881.00;;;22.20
7882;BMP180;3986;41.884;23.466;2023-12-20T09:51:56;91879.00;;;21.10
7882;BMP180;3986;41.884;23.466;2023-12-20T09:54:23;91860.00;;;20.50
7882;BMP180;3986;41.884;23.466;2023-12-20T09:56:51;91862.00;;;20.30
7882;BMP180;3986;41.884;23.466;2023-12-20T09:59:17;91861.00;;;20.30
7882;BMP180;3986;41.884;23.466;2023-12-20T10:01:44;91845.00;;;20.90
7882;BMP180;3986;41.884;23.466;2023-12-20T10:04:12;91836.00;;;21.40
7882;BMP180;3986;41.884;23.466;2023-12-20T10:06:41;91833.00;;;22.50
7882;BMP180;3986;41.884;23.466;2023-12-20T10:09:08;91830.00;;;24.10
7882;BMP180;3986;41.884;23.466;2023-12-20T10:11:36;91830.00;;;24.80
7882;BMP180;3986;41.884;23.466;2023-12-20T10:14:04;91831.00;;;23.90
7882;BMP180;3986;41.884;23.466;2023-12-20T10:16:31;91816.00;;;23.40
7882;BMP180;3986;41.884;23.466;2023-12-20T10:18:59;91810.00;;;23.00
7882;BMP180;3986;41.884;23.466;2023-12-20T10:21:26;91766.00;;;19.00
7882;BMP180;3986;41.884;23.466;2023-12-20T10:23:55;91800.00;;;19.90
7882;BMP180;3986;41.884;23.466;2023-12-20T10:26:23;91793.00;;;22.10
7882;BMP180;3986;41.884;23.466;2023-12-20T10:28:50;91798.00;;;24.10
7882;BMP180;3986;41.884;23.466;2023-12-20T10:31:28;91787.00;;;22.40
7882;BMP180;3986;41.884;23.466;2023-12-20T10:33:56;91784.00;;;24.90
7882;BMP180;3986;41.884;23.466;2023-12-20T10:36:24;91725.00;;;26.40
7882;BMP180;3986;41.884;23.466;2023-12-20T10:38:52;91717.00;;;26.90
7882;BMP180;3986;41.884;23.466;2023-12-20T10:41:25;91774.00;;;26.00
7882;BMP180;3986;41.884;23.466;2023-12-20T10:43:55;91773.00;;;26.50
7882;BMP180;3986;41.884;23.466;2023-12-20T10:46:22;91754.00;;;25.60
7882;BMP180;3986;41.884;23.466;2023-12-20T10:48:53;91756.00;;;26.30
7882;BMP180;3986;41.884;23.466;2023-12-20T10:51:20;91751.00;;;25.60
7882;BMP180;3986;41.884;23.466;2023-12-20T10:53:48;91754.00;;;24.90
7882;BMP180;3986;41.884;23.466;2023-12-20T10:56:16;91742.00;;;25.20
7882;BMP180;3986;41.884;23.466;2023-12-20T10:58:45;91738.00;;;23.30
7882;BMP180;3986;41.884;23.466;2023-12-20T11:01:14;91737.00;;;16.20
7882;BMP180;3986;41.884;23.466;2023-12-20T11:03:44;91718.00;;;15.30
7882;BMP180;3986;41.884;23.466;2023-12-20T11:06:24;91717.00;;;19.80
7882;BMP180;3986;41.884;23.466;2023-12-20T11:08:59;91728.00;;;22.00
7882;BMP180;3986;41.884;23.466;2023-12-20T11:11:37;91708.00;;;22.20
7882;BMP180;3986;41.884;23.466;2023-12-20T11:14:08;91699.00;;;23.30
7882;BMP180;3986;41.884;23.466;2023-12-20T11:16:37;91702.00;;;23.30
7882;BMP180;3986;41.884;23.466;2023-12-20T11:19:05;91698.00;;;24.80
7882;BMP180;3986;41.884;23.466;2023-12-20T11:21:32;91697.00;;;24.70
7882;BMP180;3986;41.884;23.466;2023-12-20T11:23:59;91693.00;;;24.10
7882;BMP180;3986;41.884;23.466;2023-12-20T11:26:27;91706.00;;;22.80
7882;BMP180;3986;41.884;23.466;2023-12-20T11:29:34;91684.00;;;22.30
7882;BMP180;3986;41.884;23.466;2023-12-20T11:32:02;91678.00;;;22.00
7882;BMP180;3986;41.884;23.466;2023-12-20T11:34:31;91672.00;;;23.10
7882;BMP180;3986;41.884;23.466;2023-12-20T11:36:59;91670.00;;;24.90
7882;BMP180;3986;41.884;23.466;2023-12-20T11:39:26;91670.00;;;25.30
7882;BMP180;3986;41.884;23.466;2023-12-20T11:41:55;91670.00;;;24.10
7882;BMP180;3986;41.884;23.466;2023-12-20T11:44:22;91661.00;;;23.80
7882;BMP180;3986;41.884;23.466;2023-12-20T11:46:50;91656.00;;;24.20
7882;BMP180;3986;41.884;23.466;2023-12-20T11:49:23;91652.00;;;23.90
7882;BMP180;3986;41.884;23.466;2023-12-20T11:51:50;91650.00;;;23.20
7882;BMP180;3986;41.884;23.466;2023-12-20T11:54:16;91645.00;;;21.70
7882;BMP180;3986;41.884;23.466;2023-12-20T11:56:43;91634.00;;;19.50
7882;BMP180;3986;41.884;23.466;2023-12-20T11:59:10;91628.00;;;20.60
7882;BMP180;3986;41.884;23.466;2023-12-20T12:01:37;91636.00;;;21.20
7882;BMP180;3986;41.884;23.466;2023-12-20T12:04:05;91625.00;;;21.50
7882;BMP180;3986;41.884;23.466;2023-12-20T12:06:32;91625.00;;;21.60
7882;BMP180;3986;41.884;23.466;2023-12-20T12:08:59;91628.00;;;21.70
7882;BMP180;3986;41.884;23.466;2023-12-20T12:11:26;91541.00;;;19.70
7882;BMP180;3986;41.884;23.466;2023-12-20T12:13:53;91610.00;;;19.50
7882;BMP180;3986;41.884;23.466;2023-12-20T12:16:20;91614.00;;;19.40
7882;BMP180;3986;41.884;23.466;2023-12-20T12:18:55;91621.00;;;21.30
7882;BMP180;3986;41.884;23.466;2023-12-20T12:21:23;91607.00;;;20.00
7882;BMP180;3986;41.884;23.466;2023-12-20T12:23:50;91603.00;;;18.80
7882;BMP180;3986;41.884;23.466;2023-12-20T12:26:17;91615.00;;;20.80
7882;BMP180;3986;41.884;23.466;2023-12-20T12:28:44;91605.00;;;21.40
7882;BMP180;3986;41.884;23.466;2023-12-20T12:31:13;91609.00;;;20.00
7882;BMP180;3986;41.884;23.466;2023-12-20T12:33:41;91602.00;;;18.80
7882;BMP180;3986;41.884;23.466;2023-12-20T12:36:09;91591.00;;;17.50
7882;BMP180;3986;41.884;23.466;2023-12-20T12:38:38;91595.00;;;16.70
7882;BMP180;3986;41.884;23.466;2023-12-20T12:41:04;91590.00;;;15.40
7882;BMP180;3986;41.884;23.466;2023-12-20T12:43:32;91582.00;;;14.90
7882;BMP180;3986;41.884;23.466;2023-12-20T12:46:00;91581.00;;;14.20
7882;BMP180;3986;41.884;23.466;2023-12-20T12:48:27;91572.00;;;13.30
7882;BMP180;3986;41.884;23.466;2023-12-20T12:50:54;91580.00;;;12.50
7882;BMP180;3986;41.884;23.466;2023-12-20T12:53:25;91568.00;;;11.50
7882;BMP180;3986;41.884;23.466;2023-12-20T12:55:53;91568.00;;;12.80
7882;BMP180;3986;41.884;23.466;2023-12-20T12:58:21;91562.00;;;13.00
7882;BMP180;3986;41.884;23.466;2023-12-20T13:00:47;91572.00;;;13.20
7882;BMP180;3986;41.884;23.466;2023-12-20T13:03:14;91564.00;;;13.50
7882;BMP180;3986;41.884;23.466;2023-12-20T13:05:42;91578.00;;;13.00
7882;BMP180;3986;41.884;23.466;2023-12-20T13:08:09;91556.00;;;12.00
7882;BMP180;3986;41.884;23.466;2023-12-20T13:10:37;91550.00;;;11.10
7882;BMP180;3986;41.884;23.466;2023-12-20T13:13:05;91542.00;;;11.50
7882;BMP180;3986;41.884;23.466;2023-12-20T13:15:32;91547.00;;;9.60
7882;BMP180;3986;41.884;23.466;2023-12-20T13:17:59;91548.00;;;8.60
7882;BMP180;3986;41.884;23.466;2023-12-20T13:20:26;91548.00;;;8.40
7882;BMP180;3986;41.884;23.466;2023-12-20T13:22:53;91547.00;;;8.50
7882;BMP180;3986;41.884;23.466;2023-12-20T13:25:20;91543.00;;;7.90
7882;BMP180;3986;41.884;23.466;2023-12-20T13:27:46;91517.00;;;8.10
7882;BMP180;3986;41.884;23.466;2023-12-20T13:30:15;91544.00;;;7.70
7882;BMP180;3986;41.884;23.466;2023-12-20T13:32:42;91535.00;;;8.10
7882;BMP180;3986;41.884;23.466;2023-12-20T13:35:09;91531.00;;;8.80
7882;BMP180;3986;41.884;23.466;2023-12-20T13:37:36;91526.00;;;8.80
7882;BMP180;3986;41.884;23.466;2023-12-20T13:40:04;91528.00;;;8.30
7882;BMP180;3986;41.884;23.466;2023-12-20T13:42:31;91529.00;;;8.40
7882;BMP180;3986;41.884;23.466;2023-12-20T13:44:58;91526.00;;;8.80
7882;BMP180;3986;41.884;23.466;2023-12-20T13:47:26;91522.00;;;8.60
7882;BMP180;3986;41.884;23.466;2023-12-20T13:49:54;91521.00;;;9.00
7882;BMP180;3986;41.884;23.466;2023-12-20T13:52:21;91518.00;;;9.10
7882;BMP180;3986;41.884;23.466;2023-12-20T13:54:48;91517.00;;;9.20
7882;BMP180;3986;41.884;23.466;2023-12-20T13:57:15;91519.00;;;9.20
7882;BMP180;3986;41.884;23.466;2023-12-20T13:59:41;91525.00;;;9.60
7882;BMP180;3986;41.884;23.466;2023-12-20T14:02:08;91524.00;;;9.60
7882;BMP180;3986;41.884;23.466;2023-12-20T14:04:36;91518.00;;;9.40
7882;BMP180;3986;41.884;23.466;2023-12-20T14:07:04;91512.00;;;9.20
7882;BMP180;3986;41.884;23.466;2023-12-20T14:09:32;91508.00;;;8.80
7882;BMP180;3986;41.884;23.466;2023-12-20T14:11:59;91510.00;;;8.10
7882;BMP180;3986;41.884;23.466;2023-12-20T14:14:26;91508.00;;;8.20
7882;BMP180;3986;41.884;23.466;2023-12-20T14:16:53;91506.00;;;8.30
7882;BMP180;3986;41.884;23.466;2023-12-20T14:19:20;91513.00;;;8.10
7882;BMP180;3986;41.884;23.466;2023-12-20T14:21:48;91515.00;;;7.80
7882;BMP180;3986;41.884;23.466;2023-12-20T14:24:15;91485.00;;;6.60